createdAt,value
2019-06-01T00:00:11.340Z,41.54
2019-06-01T00:01:07.361Z,41.54
2019-06-01T00:02:07.291Z,41.54
2019-06-01T00:03:07.209Z,41.54
2019-06-01T00:04:07.123Z,41.54
2019-06-01T00:05:07.061Z,41.54
2019-06-01T00:06:06.962Z,41.44
2019-06-01T00:07:06.888Z,41.61
2019-06-01T00:08:06.812Z,41.35
2019-06-01T00:09:06.724Z,41.25
2019-06-01T00:10:06.651Z,41.16
2019-06-01T00:11:06.575Z,41.25
2019-06-01T00:12:06.494Z,41.13
2019-06-01T00:13:06.413Z,41.16
2019-06-01T00:14:06.329Z,41.23
2019-06-01T00:15:06.251Z,41.33
2019-06-01T00:16:06.164Z,41.42
2019-06-01T00:17:06.091Z,41.42
2019-06-01T00:18:05.999Z,41.42
2019-06-01T00:19:05.925Z,41.42
2019-06-01T00:20:05.851Z,41.42
2019-06-01T00:21:05.774Z,41.42
2019-06-01T00:22:05.686Z,41.42
2019-06-01T00:23:05.619Z,41.42
2019-06-01T00:24:05.525Z,41.23
2019-06-01T00:25:05.452Z,41.52
2019-06-01T00:26:05.379Z,41.42
2019-06-01T00:27:05.291Z,41.33
2019-06-01T00:28:05.212Z,41.23
2019-06-01T00:29:05.138Z,41.33
2019-06-01T00:30:05.068Z,41.33
2019-06-01T00:31:04.976Z,41.42
2019-06-01T00:32:04.900Z,41.42
2019-06-01T00:33:04.812Z,41.31
2019-06-01T00:34:04.739Z,41.23
2019-06-01T00:35:04.667Z,41.21
2019-06-01T00:36:04.578Z,41.31
2019-06-01T00:37:04.502Z,41.33
2019-06-01T00:38:04.426Z,41.33
2019-06-01T00:39:04.339Z,41.21
2019-06-01T00:40:04.267Z,41.02
2019-06-01T00:41:04.196Z,40.94
2019-06-01T00:42:04.102Z,41.21
2019-06-01T00:43:04.030Z,40.92
2019-06-01T00:44:03.940Z,41.02
2019-06-01T00:45:03.863Z,41.02
2019-06-01T00:46:03.789Z,41.02
2019-06-01T00:47:03.704Z,41.02
2019-06-01T00:48:03.627Z,41.40
2019-06-01T00:49:03.558Z,41.11
2019-06-01T00:50:03.465Z,40.73
2019-06-01T00:51:03.390Z,40.64
2019-06-01T00:52:03.327Z,40.54
2019-06-01T00:53:03.243Z,40.73
2019-06-01T00:54:03.168Z,40.54
2019-06-01T00:55:03.093Z,40.54
2019-06-01T00:56:03.005Z,40.73
2019-06-01T00:57:02.930Z,40.73
2019-06-01T00:58:02.855Z,40.64
2019-06-01T00:59:02.767Z,40.44
2019-06-01T01:00:02.693Z,40.44
2019-06-01T01:01:02.617Z,40.83
2019-06-01T01:02:02.533Z,40.64
2019-06-01T01:03:02.467Z,40.73
2019-06-01T01:04:02.368Z,40.64
2019-06-01T01:05:02.293Z,40.64
2019-06-01T01:06:02.224Z,40.64
2019-06-01T01:07:02.131Z,40.64
2019-06-01T01:08:02.069Z,40.54
2019-06-01T01:09:01.985Z,40.83
2019-06-01T01:10:01.893Z,40.73
2019-06-01T01:11:01.819Z,40.73
2019-06-01T01:12:01.744Z,40.64
2019-06-01T01:13:01.656Z,40.64
2019-06-01T01:14:01.580Z,40.64
2019-06-01T01:15:01.618Z,40.64
2019-06-01T01:16:01.419Z,40.83
2019-06-01T01:17:01.344Z,41.00
2019-06-01T01:18:01.258Z,40.81
2019-06-01T01:19:01.181Z,40.81
2019-06-01T01:20:01.106Z,41.38
2019-06-01T01:21:01.021Z,41.09
2019-06-01T01:22:00.951Z,41.09
2019-06-01T01:23:00.873Z,41.19
2019-06-01T01:24:00.782Z,41.19
2019-06-01T01:25:00.707Z,40.81
2019-06-01T01:26:00.634Z,40.90
2019-06-01T01:27:00.557Z,40.90
2019-06-01T01:28:00.473Z,40.81
2019-06-01T01:29:00.384Z,40.61
2019-06-01T01:30:00.309Z,40.61
2019-06-01T01:31:11.698Z,40.90
2019-06-01T01:32:00.147Z,40.71
2019-06-01T01:33:00.070Z,40.81
2019-06-01T01:34:00.000Z,40.71
2019-06-01T01:34:59.921Z,40.81
2019-06-01T01:35:59.833Z,40.81
2019-06-01T01:36:59.760Z,40.90
2019-06-01T01:37:59.671Z,40.71
2019-06-01T01:38:59.600Z,40.90
2019-06-01T01:39:59.511Z,40.61
2019-06-01T01:40:59.544Z,40.81
2019-06-01T01:41:59.359Z,40.90
2019-06-01T01:42:59.274Z,40.81
2019-06-01T01:43:59.197Z,40.81
2019-06-01T01:44:59.121Z,40.90
2019-06-01T01:45:59.089Z,40.71
2019-06-01T01:46:59.067Z,40.61
2019-06-01T01:47:59.226Z,40.61
2019-06-01T01:48:58.798Z,40.61
2019-06-01T01:49:58.722Z,40.90
2019-06-01T01:50:58.679Z,40.52
2019-06-01T01:51:59.445Z,40.71
2019-06-01T01:52:59.002Z,40.52
2019-06-01T01:53:58.803Z,40.61
2019-06-01T01:54:58.940Z,40.61
2019-06-01T01:55:59.064Z,40.71
2019-06-01T01:56:58.250Z,40.61
2019-06-01T01:57:59.412Z,40.61
2019-06-01T01:58:58.428Z,40.61
2019-06-01T01:59:57.928Z,40.42
2019-06-01T02:00:58.526Z,40.61
2019-06-01T02:01:58.587Z,40.61
2019-06-01T02:02:57.985Z,40.52
2019-06-01T02:03:58.962Z,40.42
2019-06-01T02:04:57.832Z,40.52
2019-06-01T02:05:57.452Z,40.42
2019-06-01T02:06:58.443Z,40.52
2019-06-01T02:07:57.287Z,40.61
2019-06-01T02:08:57.213Z,40.71
2019-06-01T02:09:57.216Z,40.31
2019-06-01T02:10:57.456Z,40.50
2019-06-01T02:11:57.688Z,40.41
2019-06-01T02:12:57.546Z,40.31
2019-06-01T02:13:57.759Z,40.52
2019-06-01T02:14:57.680Z,40.23
2019-06-01T02:15:58.151Z,40.33
2019-06-01T02:16:58.006Z,40.42
2019-06-01T02:17:56.489Z,40.21
2019-06-01T02:18:57.521Z,40.31
2019-06-01T02:19:56.337Z,40.69
2019-06-01T02:20:56.282Z,40.14
2019-06-01T02:21:56.464Z,40.21
2019-06-01T02:22:56.765Z,40.50
2019-06-01T02:23:56.931Z,40.33
2019-06-01T02:24:55.938Z,40.21
2019-06-01T02:25:56.857Z,40.21
2019-06-01T02:26:57.114Z,40.33
2019-06-01T02:27:57.192Z,40.59
2019-06-01T02:28:55.614Z,40.21
2019-06-01T02:29:55.539Z,40.21
2019-06-01T02:30:56.152Z,40.31
2019-06-01T02:31:56.531Z,40.21
2019-06-01T02:32:56.312Z,40.31
2019-06-01T02:33:56.298Z,40.31
2019-06-01T02:34:56.398Z,40.02
2019-06-01T02:35:56.188Z,40.42
2019-06-01T02:36:56.350Z,40.21
2019-06-01T02:37:56.106Z,40.12
2019-06-01T02:38:56.414Z,40.41
2019-06-01T02:39:56.330Z,40.21
2019-06-01T02:40:54.880Z,40.21
2019-06-01T02:41:54.923Z,40.12
2019-06-01T02:42:55.019Z,40.04
2019-06-01T02:43:54.767Z,39.92
2019-06-01T02:44:55.076Z,40.02
2019-06-01T02:45:54.257Z,40.12
2019-06-01T02:46:55.335Z,40.41
2019-06-01T02:47:55.371Z,40.31
2019-06-01T02:48:55.391Z,40.21
2019-06-01T02:49:55.517Z,40.31
2019-06-01T02:50:55.633Z,40.23
2019-06-01T02:51:53.776Z,40.23
2019-06-01T02:52:53.690Z,40.41
2019-06-01T02:53:53.615Z,39.94
2019-06-01T02:54:53.528Z,40.50
2019-06-01T02:55:53.474Z,40.21
2019-06-01T02:56:53.378Z,40.02
2019-06-01T02:57:53.297Z,40.21
2019-06-01T02:58:53.216Z,40.21
2019-06-01T02:59:53.129Z,40.02
2019-06-01T03:00:53.052Z,40.21
2019-06-01T03:01:57.439Z,40.41
2019-06-01T03:02:52.891Z,39.92
2019-06-01T03:03:52.816Z,40.02
2019-06-01T03:04:52.730Z,40.02
2019-06-01T03:05:52.653Z,40.21
2019-06-01T03:06:52.579Z,39.92
2019-06-01T03:07:52.491Z,40.02
2019-06-01T03:08:52.417Z,40.21
2019-06-01T03:09:52.343Z,40.41
2019-06-01T03:10:52.266Z,40.31
2019-06-01T03:11:52.178Z,40.02
2019-06-01T03:12:52.097Z,39.92
2019-06-01T03:13:52.017Z,40.21
2019-06-01T03:14:51.943Z,40.12
2019-06-01T03:15:51.854Z,40.21
2019-06-01T03:16:51.785Z,40.41
2019-06-01T03:17:51.729Z,40.02
2019-06-01T03:18:51.618Z,40.21
2019-06-01T03:19:51.550Z,40.31
2019-06-01T03:20:51.458Z,40.31
2019-06-01T03:21:51.381Z,40.21
2019-06-01T03:22:51.305Z,40.31
2019-06-01T03:23:51.232Z,40.41
2019-06-01T03:24:51.143Z,40.31
2019-06-01T03:25:51.063Z,40.41
2019-06-01T03:26:50.980Z,40.21
2019-06-01T03:27:50.905Z,40.31
2019-06-01T03:28:50.829Z,40.31
2019-06-01T03:29:50.744Z,40.41
2019-06-01T03:30:50.657Z,40.50
2019-06-01T03:31:50.599Z,40.41
2019-06-01T03:32:50.507Z,40.59
2019-06-01T03:33:50.422Z,40.50
2019-06-01T03:34:50.344Z,40.41
2019-06-01T03:35:50.256Z,40.59
2019-06-01T03:36:50.196Z,40.69
2019-06-01T03:37:50.119Z,40.41
2019-06-01T03:38:50.023Z,40.31
2019-06-01T03:39:49.945Z,40.50
2019-06-01T03:40:49.857Z,40.41
2019-06-01T03:41:49.796Z,40.50
2019-06-01T03:42:49.707Z,40.41
2019-06-01T03:43:49.621Z,40.41
2019-06-01T03:44:49.545Z,40.31
2019-06-01T03:45:49.457Z,40.50
2019-06-01T03:46:49.395Z,40.69
2019-06-01T03:47:49.307Z,40.69
2019-06-01T03:48:49.222Z,40.50
2019-06-01T03:49:49.166Z,40.41
2019-06-01T03:50:49.057Z,40.69
2019-06-01T03:51:48.996Z,40.69
2019-06-01T03:52:48.915Z,41.07
2019-06-01T03:53:48.821Z,41.07
2019-06-01T03:54:48.788Z,41.07
2019-06-01T03:55:48.658Z,41.07
2019-06-01T03:56:48.599Z,41.07
2019-06-01T03:57:48.508Z,40.69
2019-06-01T03:58:48.425Z,40.78
2019-06-01T03:59:48.347Z,41.07
2019-06-01T04:00:48.259Z,40.98
2019-06-01T04:01:48.197Z,41.17
2019-06-01T04:02:48.109Z,41.07
2019-06-01T04:03:48.023Z,40.98
2019-06-01T04:04:47.947Z,41.07
2019-06-01T04:05:47.859Z,41.07
2019-06-01T04:06:47.784Z,40.98
2019-06-01T04:07:47.709Z,40.98
2019-06-01T04:08:47.622Z,41.07
2019-06-01T04:09:47.547Z,41.07
2019-06-01T04:10:47.463Z,41.07
2019-06-01T04:11:47.385Z,41.07
2019-06-01T04:12:47.316Z,40.78
2019-06-01T04:13:47.223Z,41.07
2019-06-01T04:14:47.149Z,40.98
2019-06-01T04:15:47.061Z,41.07
2019-06-01T04:16:46.985Z,40.61
2019-06-01T04:17:46.911Z,40.71
2019-06-01T04:18:46.823Z,41.00
2019-06-01T04:19:46.749Z,41.09
2019-06-01T04:20:46.681Z,40.71
2019-06-01T04:21:46.589Z,40.81
2019-06-01T04:22:46.513Z,41.09
2019-06-01T04:23:46.425Z,40.42
2019-06-01T04:24:46.349Z,40.52
2019-06-01T04:25:46.275Z,40.42
2019-06-01T04:26:46.199Z,40.33
2019-06-01T04:27:46.112Z,40.23
2019-06-01T04:28:46.037Z,40.61
2019-06-01T04:29:45.961Z,40.61
2019-06-01T04:30:45.926Z,40.54
2019-06-01T04:31:45.789Z,40.35
2019-06-01T04:32:49.804Z,40.35
2019-06-01T04:33:45.636Z,40.25
2019-06-01T04:34:45.556Z,40.35
2019-06-01T04:35:45.479Z,41.02
2019-06-01T04:36:45.419Z,41.11
2019-06-01T04:37:45.312Z,41.21
2019-06-01T04:38:45.252Z,41.13
2019-06-01T04:39:45.163Z,41.42
2019-06-01T04:40:45.078Z,42.29
2019-06-01T04:41:45.000Z,41.90
2019-06-01T04:42:44.929Z,42.57
2019-06-01T04:43:44.842Z,43.53
2019-06-01T04:44:44.769Z,44.20
2019-06-01T04:45:44.691Z,44.87
2019-06-01T04:46:44.601Z,45.93
2019-06-01T04:47:44.527Z,48.04
2019-06-01T04:48:44.457Z,48.13
2019-06-01T04:49:44.364Z,48.71
2019-06-01T04:50:44.288Z,49.67
2019-06-01T04:51:44.215Z,51.40
2019-06-01T04:52:44.146Z,53.50
2019-06-01T04:53:44.054Z,54.66
2019-06-01T04:54:43.977Z,55.62
2019-06-01T04:55:43.889Z,56.29
2019-06-01T04:56:43.815Z,57.72
2019-06-01T04:57:43.739Z,59.74
2019-06-01T04:58:43.653Z,62.52
2019-06-01T04:59:43.578Z,64.05
2019-06-01T05:00:43.504Z,64.82
2019-06-01T05:01:43.440Z,65.14
2019-06-01T05:02:43.340Z,65.33
2019-06-01T05:03:43.273Z,66.49
2019-06-01T05:04:43.642Z,71.15
2019-06-01T05:05:43.105Z,72.81
2019-06-01T05:06:43.029Z,75.89
2019-06-01T05:07:42.942Z,75.60
2019-06-01T05:08:42.871Z,78.28
2019-06-01T05:09:42.791Z,82.37
2019-06-01T05:10:42.724Z,83.37
2019-06-01T05:11:42.631Z,81.84
2019-06-01T05:12:42.554Z,81.45
2019-06-01T05:13:42.481Z,80.87
2019-06-01T05:14:42.392Z,85.86
2019-06-01T05:15:42.319Z,85.67
2019-06-01T05:16:42.241Z,83.47
2019-06-01T05:17:42.166Z,81.16
2019-06-01T05:18:42.084Z,79.57
2019-06-01T05:19:42.005Z,79.34
2019-06-01T05:20:41.932Z,80.01
2019-06-01T05:21:41.849Z,80.05
2019-06-01T05:22:41.767Z,80.91
2019-06-01T05:23:41.691Z,82.84
2019-06-01T05:24:41.617Z,86.44
2019-06-01T05:25:41.530Z,85.33
2019-06-01T05:26:41.460Z,85.24
2019-06-01T05:27:41.380Z,84.37
2019-06-01T05:28:41.295Z,83.22
2019-06-01T05:29:41.218Z,84.27
2019-06-01T05:30:41.142Z,91.28
2019-06-01T05:31:41.067Z,92.91
2019-06-01T05:32:40.981Z,92.14
2019-06-01T05:33:40.906Z,91.09
2019-06-01T05:34:40.832Z,89.17
2019-06-01T05:35:40.759Z,88.11
2019-06-01T05:36:40.671Z,89.46
2019-06-01T05:37:40.593Z,94.35
2019-06-01T05:38:40.519Z,96.37
2019-06-01T05:39:40.444Z,99.99
2019-06-01T05:40:40.357Z,99.99
2019-06-01T05:41:40.282Z,98.77
2019-06-01T05:42:40.207Z,98.29
2019-06-01T05:43:40.133Z,97.24
2019-06-01T05:44:40.061Z,97.38
2019-06-01T05:45:39.973Z,95.94
2019-06-01T05:46:39.894Z,94.40
2019-06-01T05:47:39.820Z,92.77
2019-06-01T05:48:39.733Z,93.25
2019-06-01T05:49:39.657Z,98.43
2019-06-01T05:50:39.583Z,99.99
2019-06-01T05:51:39.508Z,99.99
2019-06-01T05:52:39.423Z,99.99
2019-06-01T05:53:39.345Z,99.99
2019-06-01T05:54:39.272Z,99.99
2019-06-01T05:55:39.195Z,99.99
2019-06-01T05:56:39.110Z,99.99
2019-06-01T05:57:39.034Z,99.99
2019-06-01T05:58:38.962Z,99.99
2019-06-01T05:59:38.884Z,99.99
2019-06-01T06:00:38.873Z,99.99
2019-06-01T06:01:38.720Z,99.99
2019-06-01T06:02:38.650Z,99.99
2019-06-01T06:03:40.574Z,99.99
2019-06-01T06:04:38.509Z,99.99
2019-06-01T06:05:38.409Z,99.99
2019-06-01T06:06:38.343Z,99.99
2019-06-01T06:07:38.259Z,99.99
2019-06-01T06:08:38.185Z,99.99
2019-06-01T06:09:38.126Z,99.99
2019-06-01T06:10:38.022Z,99.99
2019-06-01T06:11:37.947Z,99.99
2019-06-01T06:12:37.872Z,99.99
2019-06-01T06:13:37.786Z,99.99
2019-06-01T06:14:37.712Z,99.99
2019-06-01T06:15:37.640Z,99.99
2019-06-01T06:16:37.566Z,99.99
2019-06-01T06:17:37.474Z,99.99
2019-06-01T06:18:37.413Z,99.99
2019-06-01T06:19:37.323Z,99.99
2019-06-01T06:20:37.249Z,99.99
2019-06-01T06:21:37.173Z,99.99
2019-06-01T06:22:37.087Z,99.99
2019-06-01T06:23:37.015Z,99.99
2019-06-01T06:24:36.936Z,99.99
2019-06-01T06:25:39.602Z,99.99
2019-06-01T06:26:36.774Z,99.99
2019-06-01T06:27:36.702Z,99.99
2019-06-01T06:28:36.629Z,99.99
2019-06-01T06:29:36.548Z,99.99
2019-06-01T06:30:36.479Z,99.99
2019-06-01T06:31:36.387Z,99.99
2019-06-01T06:32:36.325Z,99.99
2019-06-01T06:33:36.918Z,99.99
2019-06-01T06:34:36.167Z,99.99
2019-06-01T06:35:36.084Z,99.99
2019-06-01T06:36:36.019Z,99.99
2019-06-01T06:37:35.924Z,99.99
2019-06-01T06:38:35.856Z,99.99
2019-06-01T06:39:35.775Z,99.99
2019-06-01T06:40:35.688Z,99.99
2019-06-01T06:41:35.614Z,99.99
2019-06-01T06:42:35.538Z,99.99
2019-06-01T06:43:35.463Z,99.99
2019-06-01T06:44:35.397Z,99.99
2019-06-01T06:45:35.306Z,99.99
2019-06-01T06:46:35.225Z,99.99
2019-06-01T06:47:35.152Z,99.99
2019-06-01T06:48:35.076Z,99.99
2019-06-01T06:49:35.016Z,99.99
2019-06-01T06:50:34.913Z,99.99
2019-06-01T06:51:34.850Z,99.99
2019-06-01T06:52:34.764Z,99.99
2019-06-01T06:53:35.485Z,99.99
2019-06-01T06:54:34.624Z,99.99
2019-06-01T06:55:34.533Z,99.99
2019-06-01T06:56:34.453Z,99.99
2019-06-01T06:57:34.389Z,99.99
2019-06-01T06:58:34.302Z,99.99
2019-06-01T06:59:34.239Z,99.99
2019-06-01T07:00:34.260Z,99.99
2019-06-01T07:01:34.066Z,99.99
2019-06-01T07:02:34.014Z,99.99
2019-06-01T07:03:33.930Z,99.99
2019-06-01T07:04:33.841Z,99.99
2019-06-01T07:05:33.775Z,99.99
2019-06-01T07:06:33.701Z,99.99
2019-06-01T07:07:33.622Z,99.99
2019-06-01T07:08:33.528Z,99.99
2019-06-01T07:09:33.509Z,99.99
2019-06-01T07:10:33.392Z,99.99
2019-06-01T07:11:33.309Z,99.99
2019-06-01T07:12:33.229Z,99.99
2019-06-01T07:13:33.153Z,99.99
2019-06-01T07:14:33.099Z,99.99
2019-06-01T07:15:33.010Z,99.99
2019-06-01T07:16:32.932Z,99.99
2019-06-01T07:17:32.863Z,99.99
2019-06-01T07:18:32.780Z,99.99
2019-06-01T07:19:32.708Z,99.99
2019-06-01T07:20:32.642Z,99.99
2019-06-01T07:21:36.405Z,99.99
2019-06-01T07:22:32.471Z,99.99
2019-06-01T07:23:32.393Z,99.99
2019-06-01T07:24:32.364Z,99.99
2019-06-01T07:25:33.030Z,99.99
2019-06-01T07:26:32.342Z,99.99
2019-06-01T07:27:32.445Z,99.99
2019-06-01T07:28:32.428Z,99.99
2019-06-01T07:29:32.483Z,99.99
2019-06-01T07:30:36.865Z,99.99
2019-06-01T07:31:32.503Z,99.99
2019-06-01T07:32:32.810Z,99.99
2019-06-01T07:33:32.641Z,99.99
2019-06-01T07:34:41.357Z,98.92
2019-06-01T07:35:32.534Z,99.69
2019-06-01T07:36:32.608Z,96.46
2019-06-01T07:37:31.331Z,97.04
2019-06-01T07:38:31.283Z,92.89
2019-06-01T07:39:31.185Z,94.62
2019-06-01T07:40:31.107Z,94.00
2019-06-01T07:41:31.032Z,95.25
2019-06-01T07:42:30.957Z,97.28
2019-06-01T07:43:30.884Z,96.12
2019-06-01T07:44:30.822Z,95.25
2019-06-01T07:45:33.573Z,94.38
2019-06-01T07:46:30.656Z,96.03
2019-06-01T07:47:30.582Z,95.83
2019-06-01T07:48:30.508Z,96.03
2019-06-01T07:49:31.184Z,95.25
2019-06-01T07:50:30.358Z,93.27
2019-06-01T07:51:31.559Z,92.40
2019-06-01T07:52:30.207Z,89.97
2019-06-01T07:53:31.405Z,86.82
2019-06-01T07:54:30.057Z,84.43
2019-06-01T07:55:29.983Z,84.86
2019-06-01T07:56:29.908Z,84.77
2019-06-01T07:57:29.911Z,80.83
2019-06-01T07:58:29.771Z,80.73
2019-06-01T07:59:30.560Z,80.65
2019-06-01T08:00:29.614Z,79.93
2019-06-01T08:01:30.907Z,80.67
2019-06-01T08:02:30.698Z,81.93
2019-06-01T08:03:32.908Z,84.25
2019-06-01T08:04:31.753Z,84.64
2019-06-01T08:05:30.069Z,84.83
2019-06-01T08:06:31.065Z,84.24
2019-06-01T08:07:29.273Z,81.58
2019-06-01T08:08:29.477Z,81.52
2019-06-01T08:09:29.581Z,83.27
2019-06-01T08:10:29.654Z,82.92
2019-06-01T08:11:32.095Z,79.18
2019-06-01T08:12:29.660Z,79.61
2019-06-01T08:13:33.140Z,78.09
2019-06-01T08:14:28.671Z,76.54
2019-06-01T08:15:29.500Z,75.67
2019-06-01T08:16:29.904Z,76.28
2019-06-01T08:17:28.382Z,74.34
2019-06-01T08:18:28.363Z,73.99
2019-06-01T08:19:28.237Z,74.76
2019-06-01T08:20:28.657Z,74.48
2019-06-01T08:21:28.191Z,73.79
2019-06-01T08:22:28.057Z,73.21
2019-06-01T08:23:28.386Z,74.32
2019-06-01T08:24:28.292Z,72.59
2019-06-01T08:25:28.556Z,74.54
2019-06-01T08:26:28.560Z,75.05
2019-06-01T08:27:28.464Z,74.80
2019-06-01T08:28:28.938Z,72.72
2019-06-01T08:29:28.727Z,73.11
2019-06-01T08:30:28.532Z,72.30
2019-06-01T08:31:28.591Z,73.85
2019-06-01T08:32:28.607Z,72.20
2019-06-01T08:33:30.226Z,74.05
2019-06-01T08:34:27.200Z,73.27
2019-06-01T08:35:27.126Z,72.59
2019-06-01T08:36:27.308Z,73.08
2019-06-01T08:37:27.233Z,74.40
2019-06-01T08:38:27.456Z,73.52
2019-06-01T08:39:27.389Z,72.27
2019-06-01T08:40:27.377Z,72.75
2019-06-01T08:41:27.583Z,71.58
2019-06-01T08:42:27.413Z,72.49
2019-06-01T08:43:27.524Z,72.17
2019-06-01T08:44:27.579Z,70.90
2019-06-01T08:45:27.564Z,71.81
2019-06-01T08:46:27.578Z,71.29
2019-06-01T08:47:27.717Z,72.20
2019-06-01T08:48:26.247Z,71.81
2019-06-01T08:49:26.176Z,70.94
2019-06-01T08:50:26.102Z,72.53
2019-06-01T08:51:26.511Z,71.50
2019-06-01T08:52:26.017Z,70.65
2019-06-01T08:53:25.889Z,68.96
2019-06-01T08:54:25.991Z,68.22
2019-06-01T08:55:26.095Z,69.03
2019-06-01T08:56:26.205Z,68.87
2019-06-01T08:57:26.114Z,69.55
2019-06-01T08:58:26.233Z,68.87
2019-06-01T08:59:26.229Z,69.03
2019-06-01T09:00:26.366Z,69.74
2019-06-01T09:01:26.344Z,70.36
2019-06-01T09:02:26.492Z,69.74
2019-06-01T09:03:25.829Z,71.61
2019-06-01T09:04:25.142Z,70.22
2019-06-01T09:05:26.800Z,71.62
2019-06-01T09:06:25.028Z,71.72
2019-06-01T09:07:24.940Z,70.06
2019-06-01T09:08:25.594Z,69.51
2019-06-01T09:09:24.940Z,69.74
2019-06-01T09:10:25.226Z,67.50
2019-06-01T09:11:25.069Z,68.51
2019-06-01T09:12:25.091Z,68.64
2019-06-01T09:13:25.136Z,69.65
2019-06-01T09:14:25.201Z,68.29
2019-06-01T09:15:25.586Z,68.32
2019-06-01T09:16:25.341Z,68.55
2019-06-01T09:17:25.265Z,65.23
2019-06-01T09:18:25.619Z,66.50
2019-06-01T09:19:25.321Z,66.37
2019-06-01T09:20:25.387Z,66.34
2019-06-01T09:21:25.267Z,66.79
2019-06-01T09:22:25.285Z,67.47
2019-06-01T09:23:23.856Z,66.50
2019-06-01T09:24:23.792Z,66.44
2019-06-01T09:25:23.721Z,67.54
2019-06-01T09:26:23.655Z,65.79
2019-06-01T09:27:23.648Z,65.11
2019-06-01T09:28:23.521Z,66.69
2019-06-01T09:29:23.461Z,65.07
2019-06-01T09:30:23.392Z,64.20
2019-06-01T09:31:23.318Z,64.39
2019-06-01T09:32:23.256Z,64.84
2019-06-01T09:33:23.193Z,64.26
2019-06-01T09:34:23.121Z,63.65
2019-06-01T09:35:23.057Z,65.40
2019-06-01T09:36:22.994Z,64.39
2019-06-01T09:37:22.918Z,65.98
2019-06-01T09:38:22.857Z,64.23
2019-06-01T09:39:22.794Z,65.01
2019-06-01T09:40:22.719Z,66.14
2019-06-01T09:41:22.659Z,66.96
2019-06-01T09:42:22.594Z,64.88
2019-06-01T09:43:22.520Z,65.14
2019-06-01T09:44:22.457Z,65.63
2019-06-01T09:45:22.394Z,66.37
2019-06-01T09:46:22.319Z,67.80
2019-06-01T09:47:22.264Z,67.24
2019-06-01T09:48:22.182Z,66.66
2019-06-01T09:49:22.122Z,67.31
2019-06-01T09:50:22.059Z,67.86
2019-06-01T09:51:21.984Z,70.00
2019-06-01T09:52:21.926Z,69.32
2019-06-01T09:53:21.850Z,68.87
2019-06-01T09:54:21.784Z,67.93
2019-06-01T09:55:21.709Z,67.57
2019-06-01T09:56:21.654Z,68.70
2019-06-01T09:57:21.658Z,68.93
2019-06-01T09:58:21.518Z,69.19
2019-06-01T09:59:21.442Z,69.48
2019-06-01T10:00:21.370Z,69.09
2019-06-01T10:01:21.308Z,68.77
2019-06-01T10:02:21.297Z,68.44
2019-06-01T10:03:21.159Z,67.99
2019-06-01T10:04:21.093Z,66.14
2019-06-01T10:05:21.021Z,65.04
2019-06-01T10:06:20.946Z,64.13
2019-06-01T10:07:20.884Z,65.30
2019-06-01T10:08:20.810Z,66.63
2019-06-01T10:09:20.743Z,66.40
2019-06-01T10:10:20.671Z,66.66
2019-06-01T10:11:20.601Z,67.93
2019-06-01T10:12:20.706Z,66.76
2019-06-01T10:13:20.461Z,66.72
2019-06-01T10:14:20.400Z,68.44
2019-06-01T10:15:20.335Z,70.00
2019-06-01T10:16:20.253Z,69.80
2019-06-01T10:17:20.187Z,70.29
2019-06-01T10:18:20.111Z,68.63
2019-06-01T10:19:20.043Z,68.25
2019-06-01T10:20:19.973Z,68.70
2019-06-01T10:21:19.898Z,68.12
2019-06-01T10:22:19.836Z,68.02
2019-06-01T10:23:19.761Z,68.70
2019-06-01T10:24:19.688Z,67.73
2019-06-01T10:25:19.623Z,68.79
2019-06-01T10:26:19.550Z,68.83
2019-06-01T10:27:19.475Z,68.73
2019-06-01T10:28:19.415Z,69.06
2019-06-01T10:29:19.337Z,70.45
2019-06-01T10:30:19.261Z,68.41
2019-06-01T10:31:19.190Z,66.60
2019-06-01T10:32:19.123Z,67.34
2019-06-01T10:33:19.052Z,69.32
2019-06-01T10:34:18.975Z,66.47
2019-06-01T10:35:18.916Z,65.43
2019-06-01T10:36:21.160Z,67.76
2019-06-01T10:37:18.762Z,66.66
2019-06-01T10:38:18.755Z,67.80
2019-06-01T10:39:19.756Z,67.96
2019-06-01T10:40:18.550Z,67.18
2019-06-01T10:41:18.489Z,66.37
2019-06-01T10:42:18.415Z,64.45
2019-06-01T10:43:18.338Z,64.39
2019-06-01T10:44:18.282Z,62.28
2019-06-01T10:45:18.201Z,61.99
2019-06-01T10:46:18.127Z,61.99
2019-06-01T10:47:18.069Z,62.21
2019-06-01T10:48:17.993Z,60.68
2019-06-01T10:49:17.926Z,58.44
2019-06-01T10:50:17.876Z,58.27
2019-06-01T10:51:17.789Z,58.30
2019-06-01T10:52:17.715Z,58.23
2019-06-01T10:53:17.652Z,55.98
2019-06-01T10:54:17.628Z,54.74
2019-06-01T10:55:17.526Z,55.26
2019-06-01T10:56:17.441Z,54.08
2019-06-01T10:57:17.376Z,53.62
2019-06-01T10:58:17.320Z,53.91
2019-06-01T10:59:17.239Z,53.62
2019-06-01T11:00:17.176Z,52.30
2019-06-01T11:01:17.119Z,53.59
2019-06-01T11:02:17.052Z,53.30
2019-06-01T11:03:16.977Z,54.74
2019-06-01T11:04:16.914Z,54.93
2019-06-01T11:05:16.858Z,56.02
2019-06-01T11:06:16.790Z,56.68
2019-06-01T11:07:16.727Z,58.15
2019-06-01T11:08:16.659Z,59.46
2019-06-01T11:09:16.596Z,60.39
2019-06-01T11:10:16.527Z,59.84
2019-06-01T11:11:16.467Z,57.36
2019-06-01T11:12:16.404Z,55.66
2019-06-01T11:13:16.329Z,56.35
2019-06-01T11:14:16.266Z,55.73
2019-06-01T11:15:16.203Z,55.51
2019-06-01T11:16:16.142Z,54.88
2019-06-01T11:17:16.068Z,57.43
2019-06-01T11:18:16.004Z,58.81
2019-06-01T11:19:15.942Z,60.72
2019-06-01T11:20:15.879Z,60.85
2019-06-01T11:21:15.806Z,59.35
2019-06-01T11:22:15.742Z,59.15
2019-06-01T11:23:15.680Z,56.76
2019-06-01T11:24:15.617Z,55.03
2019-06-01T11:25:15.542Z,54.03
2019-06-01T11:26:15.492Z,54.67
2019-06-01T11:27:15.482Z,53.52
2019-06-01T11:28:15.405Z,55.35
2019-06-01T11:29:15.294Z,54.67
2019-06-01T11:30:15.221Z,53.39
2019-06-01T11:31:15.155Z,54.38
2019-06-01T11:32:15.096Z,54.43
2019-06-01T11:33:15.035Z,53.42
2019-06-01T11:34:14.966Z,53.59
2019-06-01T11:35:14.894Z,53.81
2019-06-01T11:36:14.830Z,53.72
2019-06-01T11:37:15.782Z,52.34
2019-06-01T11:38:14.707Z,52.00
2019-06-01T11:39:14.646Z,52.78
2019-06-01T11:40:14.575Z,54.61
2019-06-01T11:41:18.340Z,53.39
2019-06-01T11:42:14.445Z,52.73
2019-06-01T11:43:14.402Z,53.33
2019-06-01T11:44:14.321Z,53.20
2019-06-01T11:45:14.261Z,52.05
2019-06-01T11:46:14.183Z,53.74
2019-06-01T11:47:14.121Z,53.59
2019-06-01T11:48:14.060Z,54.77
2019-06-01T11:49:14.000Z,52.03
2019-06-01T11:50:13.933Z,51.56
2019-06-01T11:51:13.884Z,51.64
2019-06-01T11:52:13.809Z,52.67
2019-06-01T11:53:13.733Z,51.29
2019-06-01T11:54:13.671Z,50.63
2019-06-01T11:55:13.607Z,51.29
2019-06-01T11:56:13.545Z,51.05
2019-06-01T11:57:13.485Z,51.37
2019-06-01T11:58:13.428Z,50.34
2019-06-01T11:59:13.360Z,47.69
2019-06-01T12:00:13.296Z,45.92
2019-06-01T12:01:13.222Z,47.49
2019-06-01T12:02:13.160Z,47.50
2019-06-01T12:03:13.098Z,47.30
2019-06-01T12:04:13.033Z,48.77
2019-06-01T12:05:12.972Z,51.51
2019-06-01T12:06:12.911Z,50.17
2019-06-01T12:07:17.569Z,51.22
2019-06-01T12:08:12.784Z,52.12
2019-06-01T12:09:12.722Z,50.78
2019-06-01T12:10:12.660Z,50.12
2019-06-01T12:11:12.585Z,49.36
2019-06-01T12:12:12.522Z,47.52
2019-06-01T12:13:12.460Z,48.55
2019-06-01T12:14:12.411Z,50.32
2019-06-01T12:15:12.334Z,49.16
2019-06-01T12:16:12.273Z,48.90
2019-06-01T12:17:12.210Z,47.03
2019-06-01T12:18:12.149Z,46.74
2019-06-01T12:19:12.085Z,45.81
2019-06-01T12:20:12.036Z,47.38
2019-06-01T12:21:11.960Z,46.50
2019-06-01T12:22:11.898Z,46.13
2019-06-01T12:23:11.824Z,46.23
2019-06-01T12:24:11.766Z,47.55
2019-06-01T12:25:11.711Z,45.76
2019-06-01T12:26:11.648Z,46.18
2019-06-01T12:27:11.574Z,47.31
2019-06-01T12:28:11.511Z,48.97
2019-06-01T12:29:11.449Z,49.07
2019-06-01T12:30:11.392Z,48.43
2019-06-01T12:31:11.324Z,48.55
2019-06-01T12:32:11.262Z,46.62
2019-06-01T12:33:11.188Z,46.95
2019-06-01T12:34:11.124Z,46.12
2019-06-01T12:35:11.076Z,45.87
2019-06-01T12:36:11.008Z,44.77
2019-06-01T12:37:10.952Z,45.57
2019-06-01T12:38:10.876Z,44.35
2019-06-01T12:39:10.812Z,45.04
2019-06-01T12:40:10.756Z,45.63
2019-06-01T12:41:10.688Z,45.06
2019-06-01T12:42:10.631Z,44.74
2019-06-01T12:43:10.564Z,44.98
2019-06-01T12:44:10.501Z,46.31
2019-06-01T12:45:10.441Z,47.15
2019-06-01T12:46:10.375Z,45.48
2019-06-01T12:47:10.312Z,45.24
2019-06-01T12:48:10.280Z,45.04
2019-06-01T12:49:10.176Z,44.43
2019-06-01T12:50:10.121Z,45.59
2019-06-01T12:51:10.052Z,45.49